Wheaton Aston, United Kingdom
Current Conditions -  °F | °C
As of 7:50 PM on Wednesday 26 Nov 2014 (Local Time) from EGOS Reporting Station
Haze Haze  
Wind Chill: 45°   Ceiling: 400
Heat Index: 45°   Visibility: 1mi
Dew Point: 45°   Wind: 3mph
Humidity: 100%   Direction: 30°NNE
Pressure: 29.8"   Gusts: NA
Location:  52.71°N, 2.22°W
Report Text: EGOS 261950Z AUTO 03003KT 1700 BR OVC004/// 07/07 Q1009
Loading
Personal Weather Stations






























Interactive Weather Map New forecast layout! Learn more

10-Day Weather Forecast

Advertisements
Track Severe Weather on mobile